sensor_id;sensor_type;location;lat;lon;timestamp;P1;durP1;ratioP1;P2;durP2;ratioP2
8592;SDS011;4334;49.982;8.398;2023-04-24T00:02:01;0.73;;;0.70;;
8592;SDS011;4334;49.982;8.398;2023-04-24T00:04:28;1.17;;;0.70;;
8592;SDS011;4334;49.982;8.398;2023-04-24T00:06:56;0.70;;;0.67;;
8592;SDS011;4334;49.982;8.398;2023-04-24T00:09:25;1.00;;;0.60;;
8592;SDS011;4334;49.982;8.398;2023-04-24T00:11:52;1.10;;;1.00;;
8592;SDS011;4334;49.982;8.398;2023-04-24T00:14:19;0.60;;;0.60;;
8592;SDS011;4334;49.982;8.398;2023-04-24T00:16:47;3.77;;;1.37;;
8592;SDS011;4334;49.982;8.398;2023-04-24T00:19:15;0.70;;;0.70;;
8592;SDS011;4334;49.982;8.398;2023-04-24T00:21:46;1.33;;;1.00;;
8592;SDS011;4334;49.982;8.398;2023-04-24T00:24:15;1.10;;;0.47;;
8592;SDS011;4334;49.982;8.398;2023-04-24T00:26:41;2.53;;;0.77;;
8592;SDS011;4334;49.982;8.398;2023-04-24T00:29:08;1.23;;;0.80;;
8592;SDS011;4334;49.982;8.398;2023-04-24T00:31:35;0.73;;;0.73;;
8592;SDS011;4334;49.982;8.398;2023-04-24T00:34:02;0.77;;;0.77;;
8592;SDS011;4334;49.982;8.398;2023-04-24T00:36:31;0.93;;;0.77;;
8592;SDS011;4334;49.982;8.398;2023-04-24T00:38:57;1.10;;;0.80;;
8592;SDS011;4334;49.982;8.398;2023-04-24T00:41:24;1.07;;;0.97;;
8592;SDS011;4334;49.982;8.398;2023-04-24T00:43:52;1.93;;;0.80;;
8592;SDS011;4334;49.982;8.398;2023-04-24T00:46:19;2.70;;;0.80;;
8592;SDS011;4334;49.982;8.398;2023-04-24T00:48:47;2.03;;;0.83;;
8592;SDS011;4334;49.982;8.398;2023-04-24T00:51:14;0.70;;;0.70;;
8592;SDS011;4334;49.982;8.398;2023-04-24T00:53:42;1.33;;;0.70;;
8592;SDS011;4334;49.982;8.398;2023-04-24T00:56:09;0.60;;;0.60;;
8592;SDS011;4334;49.982;8.398;2023-04-24T00:58:37;0.50;;;0.50;;
8592;SDS011;4334;49.982;8.398;2023-04-24T01:01:04;1.20;;;0.80;;
8592;SDS011;4334;49.982;8.398;2023-04-24T01:03:32;0.80;;;0.70;;
8592;SDS011;4334;49.982;8.398;2023-04-24T01:06:02;1.00;;;0.77;;
8592;SDS011;4334;49.982;8.398;2023-04-24T01:08:30;1.50;;;0.90;;
8592;SDS011;4334;49.982;8.398;2023-04-24T01:10:58;1.00;;;0.90;;
8592;SDS011;4334;49.982;8.398;2023-04-24T01:13:26;0.80;;;0.80;;
8592;SDS011;4334;49.982;8.398;2023-04-24T01:15:53;1.00;;;0.90;;
8592;SDS011;4334;49.982;8.398;2023-04-24T01:18:20;0.97;;;0.80;;
8592;SDS011;4334;49.982;8.398;2023-04-24T01:20:48;1.00;;;0.90;;
8592;SDS011;4334;49.982;8.398;2023-04-24T01:23:18;1.17;;;1.07;;
8592;SDS011;4334;49.982;8.398;2023-04-24T01:25:45;0.90;;;0.90;;
8592;SDS011;4334;49.982;8.398;2023-04-24T01:28:13;1.60;;;1.03;;
8592;SDS011;4334;49.982;8.398;2023-04-24T01:30:40;1.37;;;1.20;;
8592;SDS011;4334;49.982;8.398;2023-04-24T01:33:07;1.00;;;0.90;;
8592;SDS011;4334;49.982;8.398;2023-04-24T01:35:35;1.67;;;0.93;;
8592;SDS011;4334;49.982;8.398;2023-04-24T01:38:02;1.67;;;1.17;;
8592;SDS011;4334;49.982;8.398;2023-04-24T01:40:32;1.53;;;1.10;;
8592;SDS011;4334;49.982;8.398;2023-04-24T01:42:59;1.27;;;1.03;;
8592;SDS011;4334;49.982;8.398;2023-04-24T01:45:26;0.87;;;0.80;;
8592;SDS011;4334;49.982;8.398;2023-04-24T01:47:53;0.63;;;0.63;;
8592;SDS011;4334;49.982;8.398;2023-04-24T01:50:19;2.67;;;1.17;;
8592;SDS011;4334;49.982;8.398;2023-04-24T01:52:46;1.10;;;0.90;;
8592;SDS011;4334;49.982;8.398;2023-04-24T01:55:13;1.70;;;1.17;;
8592;SDS011;4334;49.982;8.398;2023-04-24T01:57:41;0.70;;;0.67;;
8592;SDS011;4334;49.982;8.398;2023-04-24T02:00:09;4.60;;;1.00;;
8592;SDS011;4334;49.982;8.398;2023-04-24T02:02:39;0.77;;;0.67;;
8592;SDS011;4334;49.982;8.398;2023-04-24T02:05:07;1.40;;;0.80;;
8592;SDS011;4334;49.982;8.398;2023-04-24T02:07:35;0.80;;;0.80;;
8592;SDS011;4334;49.982;8.398;2023-04-24T02:10:02;0.90;;;0.83;;
8592;SDS011;4334;49.982;8.398;2023-04-24T02:12:30;1.60;;;0.93;;
8592;SDS011;4334;49.982;8.398;2023-04-24T02:14:58;0.63;;;0.63;;
8592;SDS011;4334;49.982;8.398;2023-04-24T02:17:26;0.63;;;0.63;;
8592;SDS011;4334;49.982;8.398;2023-04-24T02:19:53;1.33;;;1.10;;
8592;SDS011;4334;49.982;8.398;2023-04-24T02:22:20;0.97;;;0.90;;
8592;SDS011;4334;49.982;8.398;2023-04-24T02:24:47;0.73;;;0.73;;
8592;SDS011;4334;49.982;8.398;2023-04-24T02:27:13;0.70;;;0.70;;
8592;SDS011;4334;49.982;8.398;2023-04-24T02:29:40;2.47;;;0.90;;
8592;SDS011;4334;49.982;8.398;2023-04-24T02:32:09;2.60;;;1.00;;
8592;SDS011;4334;49.982;8.398;2023-04-24T02:34:37;0.80;;;0.80;;
8592;SDS011;4334;49.982;8.398;2023-04-24T02:37:04;0.93;;;0.80;;
8592;SDS011;4334;49.982;8.398;2023-04-24T02:39:31;0.77;;;0.77;;
8592;SDS011;4334;49.982;8.398;2023-04-24T02:41:58;0.63;;;0.63;;
8592;SDS011;4334;49.982;8.398;2023-04-24T02:44:25;0.50;;;0.50;;
8592;SDS011;4334;49.982;8.398;2023-04-24T02:46:52;0.60;;;0.60;;
8592;SDS011;4334;49.982;8.398;2023-04-24T02:49:20;0.70;;;0.70;;
8592;SDS011;4334;49.982;8.398;2023-04-24T02:51:47;2.13;;;0.57;;
8592;SDS011;4334;49.982;8.398;2023-04-24T02:54:15;0.87;;;0.80;;
8592;SDS011;4334;49.982;8.398;2023-04-24T02:56:41;2.67;;;1.03;;
8592;SDS011;4334;49.982;8.398;2023-04-24T02:59:08;1.87;;;1.07;;
8592;SDS011;4334;49.982;8.398;2023-04-24T03:01:35;1.00;;;0.73;;
8592;SDS011;4334;49.982;8.398;2023-04-24T03:04:02;0.60;;;0.60;;
8592;SDS011;4334;49.982;8.398;2023-04-24T03:06:31;1.13;;;0.90;;
8592;SDS011;4334;49.982;8.398;2023-04-24T03:09:00;0.87;;;0.80;;
8592;SDS011;4334;49.982;8.398;2023-04-24T03:11:27;0.77;;;0.60;;
8592;SDS011;4334;49.982;8.398;2023-04-24T03:13:54;4.17;;;1.00;;
8592;SDS011;4334;49.982;8.398;2023-04-24T03:16:21;6.73;;;0.87;;
8592;SDS011;4334;49.982;8.398;2023-04-24T03:18:48;0.93;;;0.83;;
8592;SDS011;4334;49.982;8.398;2023-04-24T03:21:14;1.87;;;0.93;;
8592;SDS011;4334;49.982;8.398;2023-04-24T03:23:43;1.00;;;0.83;;
8592;SDS011;4334;49.982;8.398;2023-04-24T03:26:10;1.07;;;1.03;;
8592;SDS011;4334;49.982;8.398;2023-04-24T03:28:37;1.50;;;1.20;;
8592;SDS011;4334;49.982;8.398;2023-04-24T03:31:03;2.77;;;1.50;;
8592;SDS011;4334;49.982;8.398;2023-04-24T03:33:30;0.73;;;0.73;;
8592;SDS011;4334;49.982;8.398;2023-04-24T03:35:57;2.57;;;0.77;;
8592;SDS011;4334;49.982;8.398;2023-04-24T03:38:24;0.63;;;0.63;;
8592;SDS011;4334;49.982;8.398;2023-04-24T03:40:52;1.10;;;0.90;;
8592;SDS011;4334;49.982;8.398;2023-04-24T03:43:19;2.40;;;0.87;;
8592;SDS011;4334;49.982;8.398;2023-04-24T03:45:46;0.60;;;0.60;;
8592;SDS011;4334;49.982;8.398;2023-04-24T03:48:12;2.93;;;1.37;;
8592;SDS011;4334;49.982;8.398;2023-04-24T03:50:39;0.83;;;0.83;;
8592;SDS011;4334;49.982;8.398;2023-04-24T03:53:06;3.47;;;1.27;;
8592;SDS011;4334;49.982;8.398;2023-04-24T03:55:33;1.20;;;1.07;;
8592;SDS011;4334;49.982;8.398;2023-04-24T03:58:01;0.97;;;0.80;;
8592;SDS011;4334;49.982;8.398;2023-04-24T04:00:28;0.80;;;0.80;;
8592;SDS011;4334;49.982;8.398;2023-04-24T04:02:58;1.17;;;1.07;;
8592;SDS011;4334;49.982;8.398;2023-04-24T04:05:25;1.00;;;0.80;;
8592;SDS011;4334;49.982;8.398;2023-04-24T04:07:51;0.70;;;0.70;;
8592;SDS011;4334;49.982;8.398;2023-04-24T04:10:18;1.53;;;1.10;;
8592;SDS011;4334;49.982;8.398;2023-04-24T04:12:45;1.60;;;1.37;;
8592;SDS011;4334;49.982;8.398;2023-04-24T04:15:13;2.30;;;1.07;;
8592;SDS011;4334;49.982;8.398;2023-04-24T04:17:40;1.20;;;1.10;;
8592;SDS011;4334;49.982;8.398;2023-04-24T04:20:07;0.87;;;0.77;;
8592;SDS011;4334;49.982;8.398;2023-04-24T04:22:35;3.83;;;1.73;;
8592;SDS011;4334;49.982;8.398;2023-04-24T04:25:02;1.17;;;1.07;;
8592;SDS011;4334;49.982;8.398;2023-04-24T04:27:30;4.27;;;1.50;;
8592;SDS011;4334;49.982;8.398;2023-04-24T04:29:57;1.93;;;1.20;;
8592;SDS011;4334;49.982;8.398;2023-04-24T04:32:27;3.30;;;2.00;;
8592;SDS011;4334;49.982;8.398;2023-04-24T04:34:54;2.20;;;1.47;;
8592;SDS011;4334;49.982;8.398;2023-04-24T04:37:21;1.87;;;1.37;;
8592;SDS011;4334;49.982;8.398;2023-04-24T04:39:48;5.13;;;2.53;;
8592;SDS011;4334;49.982;8.398;2023-04-24T04:42:15;2.00;;;1.50;;
8592;SDS011;4334;49.982;8.398;2023-04-24T04:44:43;1.50;;;1.40;;
8592;SDS011;4334;49.982;8.398;2023-04-24T04:47:11;1.23;;;0.93;;
8592;SDS011;4334;49.982;8.398;2023-04-24T04:49:39;1.33;;;1.23;;
8592;SDS011;4334;49.982;8.398;2023-04-24T04:52:06;1.60;;;1.30;;
8592;SDS011;4334;49.982;8.398;2023-04-24T04:54:33;2.27;;;1.00;;
8592;SDS011;4334;49.982;8.398;2023-04-24T04:57:00;12.90;;;3.00;;
8592;SDS011;4334;49.982;8.398;2023-04-24T04:59:27;5.33;;;1.77;;
8592;SDS011;4334;49.982;8.398;2023-04-24T05:01:53;3.03;;;1.83;;
8592;SDS011;4334;49.982;8.398;2023-04-24T05:04:20;3.37;;;2.07;;
8592;SDS011;4334;49.982;8.398;2023-04-24T05:06:48;1.67;;;1.40;;
8592;SDS011;4334;49.982;8.398;2023-04-24T05:09:16;1.90;;;1.50;;
8592;SDS011;4334;49.982;8.398;2023-04-24T05:11:43;2.27;;;1.60;;
8592;SDS011;4334;49.982;8.398;2023-04-24T05:14:10;1.70;;;1.40;;
8592;SDS011;4334;49.982;8.398;2023-04-24T05:16:38;3.17;;;2.10;;
8592;SDS011;4334;49.982;8.398;2023-04-24T05:19:06;12.43;;;4.57;;
8592;SDS011;4334;49.982;8.398;2023-04-24T05:21:32;2.83;;;1.57;;
8592;SDS011;4334;49.982;8.398;2023-04-24T05:24:01;1.70;;;1.40;;
8592;SDS011;4334;49.982;8.398;2023-04-24T05:26:28;2.83;;;1.67;;
8592;SDS011;4334;49.982;8.398;2023-04-24T05:28:55;3.20;;;1.80;;
8592;SDS011;4334;49.982;8.398;2023-04-24T05:31:22;1.87;;;1.57;;
8592;SDS011;4334;49.982;8.398;2023-04-24T05:33:50;1.90;;;1.40;;
8592;SDS011;4334;49.982;8.398;2023-04-24T05:36:17;1.90;;;1.63;;
8592;SDS011;4334;49.982;8.398;2023-04-24T05:38:44;5.37;;;2.30;;
8592;SDS011;4334;49.982;8.398;2023-04-24T05:41:13;3.57;;;2.40;;
8592;SDS011;4334;49.982;8.398;2023-04-24T05:43:40;3.53;;;2.20;;
8592;SDS011;4334;49.982;8.398;2023-04-24T05:46:07;2.33;;;2.13;;
8592;SDS011;4334;49.982;8.398;2023-04-24T05:48:33;2.43;;;2.13;;
8592;SDS011;4334;49.982;8.398;2023-04-24T05:51:00;2.57;;;2.07;;
8592;SDS011;4334;49.982;8.398;2023-04-24T05:53:27;2.73;;;1.87;;
8592;SDS011;4334;49.982;8.398;2023-04-24T05:55:54;2.97;;;2.00;;
8592;SDS011;4334;49.982;8.398;2023-04-24T05:58:22;1.70;;;1.60;;
8592;SDS011;4334;49.982;8.398;2023-04-24T06:00:49;2.37;;;1.87;;
8592;SDS011;4334;49.982;8.398;2023-04-24T06:03:17;4.10;;;2.17;;
8592;SDS011;4334;49.982;8.398;2023-04-24T06:05:44;3.03;;;2.47;;
8592;SDS011;4334;49.982;8.398;2023-04-24T06:08:10;2.23;;;1.83;;
8592;SDS011;4334;49.982;8.398;2023-04-24T06:10:37;2.17;;;1.60;;
8592;SDS011;4334;49.982;8.398;2023-04-24T06:13:05;2.43;;;1.87;;
8592;SDS011;4334;49.982;8.398;2023-04-24T06:15:33;1.93;;;1.70;;
8592;SDS011;4334;49.982;8.398;2023-04-24T06:18:00;1.50;;;1.40;;
8592;SDS011;4334;49.982;8.398;2023-04-24T06:20:27;2.03;;;1.77;;
8592;SDS011;4334;49.982;8.398;2023-04-24T06:22:54;1.60;;;1.50;;
8592;SDS011;4334;49.982;8.398;2023-04-24T06:25:21;1.67;;;1.47;;
8592;SDS011;4334;49.982;8.398;2023-04-24T06:27:49;2.40;;;1.70;;
8592;SDS011;4334;49.982;8.398;2023-04-24T06:30:16;1.93;;;1.70;;
8592;SDS011;4334;49.982;8.398;2023-04-24T06:32:45;3.63;;;1.70;;
8592;SDS011;4334;49.982;8.398;2023-04-24T06:35:13;1.77;;;1.50;;
8592;SDS011;4334;49.982;8.398;2023-04-24T06:37:41;3.70;;;2.10;;
8592;SDS011;4334;49.982;8.398;2023-04-24T06:40:08;2.17;;;1.80;;
8592;SDS011;4334;49.982;8.398;2023-04-24T06:42:36;3.07;;;2.30;;
8592;SDS011;4334;49.982;8.398;2023-04-24T06:45:04;2.03;;;1.67;;
8592;SDS011;4334;49.982;8.398;2023-04-24T06:47:31;1.70;;;1.57;;
8592;SDS011;4334;49.982;8.398;2023-04-24T06:49:59;2.57;;;1.97;;
8592;SDS011;4334;49.982;8.398;2023-04-24T06:52:27;3.67;;;1.93;;
8592;SDS011;4334;49.982;8.398;2023-04-24T06:54:59;6.03;;;1.83;;
8592;SDS011;4334;49.982;8.398;2023-04-24T06:57:27;2.20;;;1.83;;
8592;SDS011;4334;49.982;8.398;2023-04-24T06:59:54;2.20;;;1.60;;
8592;SDS011;4334;49.982;8.398;2023-04-24T07:02:21;2.13;;;1.70;;
8592;SDS011;4334;49.982;8.398;2023-04-24T07:04:48;2.13;;;1.50;;
8592;SDS011;4334;49.982;8.398;2023-04-24T07:07:19;2.20;;;1.83;;
8592;SDS011;4334;49.982;8.398;2023-04-24T07:09:46;1.53;;;1.43;;
8592;SDS011;4334;49.982;8.398;2023-04-24T07:12:13;9.97;;;2.00;;
8592;SDS011;4334;49.982;8.398;2023-04-24T07:14:42;3.67;;;1.93;;
8592;SDS011;4334;49.982;8.398;2023-04-24T07:17:08;2.40;;;1.83;;
8592;SDS011;4334;49.982;8.398;2023-04-24T07:19:38;1.90;;;1.70;;
8592;SDS011;4334;49.982;8.398;2023-04-24T07:22:05;2.30;;;2.10;;
8592;SDS011;4334;49.982;8.398;2023-04-24T07:24:33;2.27;;;2.03;;
8592;SDS011;4334;49.982;8.398;2023-04-24T07:26:59;2.37;;;1.90;;
8592;SDS011;4334;49.982;8.398;2023-04-24T07:29:27;3.50;;;1.80;;
8592;SDS011;4334;49.982;8.398;2023-04-24T07:31:53;2.27;;;1.70;;
8592;SDS011;4334;49.982;8.398;2023-04-24T07:34:21;4.63;;;2.83;;
8592;SDS011;4334;49.982;8.398;2023-04-24T07:36:48;7.50;;;3.10;;
8592;SDS011;4334;49.982;8.398;2023-04-24T07:39:15;4.83;;;2.53;;
8592;SDS011;4334;49.982;8.398;2023-04-24T07:41:43;2.07;;;1.87;;
8592;SDS011;4334;49.982;8.398;2023-04-24T07:44:10;2.67;;;2.20;;
8592;SDS011;4334;49.982;8.398;2023-04-24T07:46:37;5.43;;;2.83;;
8592;SDS011;4334;49.982;8.398;2023-04-24T07:49:03;3.00;;;2.57;;
8592;SDS011;4334;49.982;8.398;2023-04-24T07:51:30;3.37;;;2.00;;
8592;SDS011;4334;49.982;8.398;2023-04-24T07:53:58;3.70;;;2.07;;
8592;SDS011;4334;49.982;8.398;2023-04-24T07:56:25;2.50;;;1.97;;
8592;SDS011;4334;49.982;8.398;2023-04-24T07:58:53;2.47;;;1.97;;
8592;SDS011;4334;49.982;8.398;2023-04-24T08:01:20;2.33;;;1.70;;
8592;SDS011;4334;49.982;8.398;2023-04-24T08:03:47;1.93;;;1.73;;
8592;SDS011;4334;49.982;8.398;2023-04-24T08:06:14;3.57;;;1.73;;
8592;SDS011;4334;49.982;8.398;2023-04-24T08:08:41;4.50;;;1.60;;
8592;SDS011;4334;49.982;8.398;2023-04-24T08:11:08;2.13;;;1.77;;
8592;SDS011;4334;49.982;8.398;2023-04-24T08:13:35;1.60;;;1.50;;
8592;SDS011;4334;49.982;8.398;2023-04-24T08:16:03;1.43;;;1.33;;
8592;SDS011;4334;49.982;8.398;2023-04-24T08:18:30;2.47;;;1.60;;
8592;SDS011;4334;49.982;8.398;2023-04-24T08:20:57;1.60;;;1.50;;
8592;SDS011;4334;49.982;8.398;2023-04-24T08:23:26;1.40;;;1.30;;
8592;SDS011;4334;49.982;8.398;2023-04-24T08:25:53;3.03;;;1.40;;
8592;SDS011;4334;49.982;8.398;2023-04-24T08:28:21;2.00;;;1.70;;
8592;SDS011;4334;49.982;8.398;2023-04-24T08:30:48;2.17;;;1.77;;
8592;SDS011;4334;49.982;8.398;2023-04-24T08:33:20;1.80;;;1.63;;
8592;SDS011;4334;49.982;8.398;2023-04-24T08:35:47;1.60;;;1.50;;
8592;SDS011;4334;49.982;8.398;2023-04-24T08:38:14;1.90;;;1.70;;
8592;SDS011;4334;49.982;8.398;2023-04-24T08:40:42;1.50;;;1.40;;
8592;SDS011;4334;49.982;8.398;2023-04-24T08:43:11;1.77;;;1.47;;
8592;SDS011;4334;49.982;8.398;2023-04-24T08:45:38;1.70;;;1.20;;
8592;SDS011;4334;49.982;8.398;2023-04-24T08:48:06;2.33;;;1.53;;
8592;SDS011;4334;49.982;8.398;2023-04-24T08:50:35;1.60;;;1.50;;
8592;SDS011;4334;49.982;8.398;2023-04-24T08:53:03;1.50;;;1.30;;
8592;SDS011;4334;49.982;8.398;2023-04-24T08:55:30;2.27;;;1.60;;
8592;SDS011;4334;49.982;8.398;2023-04-24T08:57:59;3.20;;;1.50;;
8592;SDS011;4334;49.982;8.398;2023-04-24T09:00:28;1.60;;;1.47;;
8592;SDS011;4334;49.982;8.398;2023-04-24T09:02:55;3.50;;;1.43;;
8592;SDS011;4334;49.982;8.398;2023-04-24T09:05:23;3.27;;;1.90;;
8592;SDS011;4334;49.982;8.398;2023-04-24T09:07:53;1.70;;;1.60;;
8592;SDS011;4334;49.982;8.398;2023-04-24T09:10:21;1.40;;;1.27;;
8592;SDS011;4334;49.982;8.398;2023-04-24T09:12:48;7.23;;;1.60;;
8592;SDS011;4334;49.982;8.398;2023-04-24T09:15:16;1.90;;;1.60;;
8592;SDS011;4334;49.982;8.398;2023-04-24T09:17:44;9.60;;;1.97;;
8592;SDS011;4334;49.982;8.398;2023-04-24T09:20:11;1.63;;;1.43;;
8592;SDS011;4334;49.982;8.398;2023-04-24T09:22:39;1.50;;;1.10;;
8592;SDS011;4334;49.982;8.398;2023-04-24T09:25:07;1.20;;;1.10;;
8592;SDS011;4334;49.982;8.398;2023-04-24T09:27:37;1.40;;;1.30;;
8592;SDS011;4334;49.982;8.398;2023-04-24T09:30:08;1.30;;;1.10;;
8592;SDS011;4334;49.982;8.398;2023-04-24T09:32:36;1.47;;;1.33;;
8592;SDS011;4334;49.982;8.398;2023-04-24T09:35:07;1.50;;;1.20;;
8592;SDS011;4334;49.982;8.398;2023-04-24T09:37:36;3.60;;;1.63;;
8592;SDS011;4334;49.982;8.398;2023-04-24T09:40:15;1.30;;;1.20;;
8592;SDS011;4334;49.982;8.398;2023-04-24T09:42:44;1.73;;;1.10;;
8592;SDS011;4334;49.982;8.398;2023-04-24T09:45:12;1.73;;;1.27;;
8592;SDS011;4334;49.982;8.398;2023-04-24T09:47:39;4.10;;;1.53;;
8592;SDS011;4334;49.982;8.398;2023-04-24T09:50:13;3.03;;;1.30;;
8592;SDS011;4334;49.982;8.398;2023-04-24T09:52:42;0.80;;;0.80;;
8592;SDS011;4334;49.982;8.398;2023-04-24T09:55:18;1.50;;;1.40;;
8592;SDS011;4334;49.982;8.398;2023-04-24T09:57:49;2.90;;;1.33;;
8592;SDS011;4334;49.982;8.398;2023-04-24T10:00:23;1.27;;;1.17;;
8592;SDS011;4334;49.982;8.398;2023-04-24T10:02:58;1.57;;;1.13;;
8592;SDS011;4334;49.982;8.398;2023-04-24T10:05:27;2.10;;;1.37;;
8592;SDS011;4334;49.982;8.398;2023-04-24T10:08:00;1.00;;;1.00;;
8592;SDS011;4334;49.982;8.398;2023-04-24T10:10:29;1.53;;;1.43;;
8592;SDS011;4334;49.982;8.398;2023-04-24T10:12:56;1.00;;;0.97;;
8592;SDS011;4334;49.982;8.398;2023-04-24T10:15:24;2.10;;;1.33;;
8592;SDS011;4334;49.982;8.398;2023-04-24T10:17:52;1.90;;;1.30;;
8592;SDS011;4334;49.982;8.398;2023-04-24T10:20:20;1.80;;;1.23;;
8592;SDS011;4334;49.982;8.398;2023-04-24T10:22:49;1.53;;;1.27;;
8592;SDS011;4334;49.982;8.398;2023-04-24T10:25:17;1.40;;;1.30;;
8592;SDS011;4334;49.982;8.398;2023-04-24T10:27:48;2.33;;;1.23;;
8592;SDS011;4334;49.982;8.398;2023-04-24T10:30:15;1.80;;;1.17;;
8592;SDS011;4334;49.982;8.398;2023-04-24T10:32:43;1.60;;;1.50;;
8592;SDS011;4334;49.982;8.398;2023-04-24T10:35:11;2.80;;;1.80;;
8592;SDS011;4334;49.982;8.398;2023-04-24T10:37:40;2.07;;;1.40;;
8592;SDS011;4334;49.982;8.398;2023-04-24T10:40:10;1.33;;;1.23;;
8592;SDS011;4334;49.982;8.398;2023-04-24T10:42:42;2.17;;;1.70;;
8592;SDS011;4334;49.982;8.398;2023-04-24T10:45:17;1.37;;;1.27;;
8592;SDS011;4334;49.982;8.398;2023-04-24T10:47:51;1.97;;;1.47;;
8592;SDS011;4334;49.982;8.398;2023-04-24T10:50:19;1.60;;;1.23;;
8592;SDS011;4334;49.982;8.398;2023-04-24T10:52:46;2.30;;;1.10;;
8592;SDS011;4334;49.982;8.398;2023-04-24T10:55:15;1.30;;;1.20;;
8592;SDS011;4334;49.982;8.398;2023-04-24T11:00:33;1.10;;;1.00;;
8592;SDS011;4334;49.982;8.398;2023-04-24T11:03:04;7.80;;;1.73;;
8592;SDS011;4334;49.982;8.398;2023-04-24T11:08:28;1.53;;;1.13;;
8592;SDS011;4334;49.982;8.398;2023-04-24T11:10:58;2.03;;;1.27;;
8592;SDS011;4334;49.982;8.398;2023-04-24T11:13:28;0.97;;;0.90;;
8592;SDS011;4334;49.982;8.398;2023-04-24T11:16:35;0.77;;;0.77;;
8592;SDS011;4334;49.982;8.398;2023-04-24T11:19:05;0.60;;;0.60;;
8592;SDS011;4334;49.982;8.398;2023-04-24T11:21:39;2.30;;;1.50;;
8592;SDS011;4334;49.982;8.398;2023-04-24T11:24:27;3.20;;;1.40;;
8592;SDS011;4334;49.982;8.398;2023-04-24T11:26:56;0.97;;;0.83;;
8592;SDS011;4334;49.982;8.398;2023-04-24T11:29:38;1.13;;;0.90;;
8592;SDS011;4334;49.982;8.398;2023-04-24T11:32:15;2.33;;;1.67;;
8592;SDS011;4334;49.982;8.398;2023-04-24T11:34:54;1.20;;;1.03;;
8592;SDS011;4334;49.982;8.398;2023-04-24T11:37:22;1.13;;;0.60;;
8592;SDS011;4334;49.982;8.398;2023-04-24T11:39:50;0.93;;;0.87;;
8592;SDS011;4334;49.982;8.398;2023-04-24T11:42:18;1.07;;;0.97;;
8592;SDS011;4334;49.982;8.398;2023-04-24T11:44:48;0.57;;;0.57;;
8592;SDS011;4334;49.982;8.398;2023-04-24T11:47:16;1.00;;;0.90;;
8592;SDS011;4334;49.982;8.398;2023-04-24T11:49:43;0.83;;;0.83;;
8592;SDS011;4334;49.982;8.398;2023-04-24T11:52:10;1.10;;;1.00;;
8592;SDS011;4334;49.982;8.398;2023-04-24T11:54:37;1.50;;;1.00;;
8592;SDS011;4334;49.982;8.398;2023-04-24T11:57:04;1.30;;;1.20;;
8592;SDS011;4334;49.982;8.398;2023-04-24T11:59:35;6.43;;;1.40;;
8592;SDS011;4334;49.982;8.398;2023-04-24T12:02:04;1.47;;;1.07;;
8592;SDS011;4334;49.982;8.398;2023-04-24T12:04:38;1.83;;;1.30;;
8592;SDS011;4334;49.982;8.398;2023-04-24T12:07:06;1.67;;;1.13;;
8592;SDS011;4334;49.982;8.398;2023-04-24T12:09:41;4.60;;;1.33;;
8592;SDS011;4334;49.982;8.398;2023-04-24T12:12:24;2.40;;;1.60;;
8592;SDS011;4334;49.982;8.398;2023-04-24T12:14:52;2.73;;;1.20;;
8592;SDS011;4334;49.982;8.398;2023-04-24T12:17:25;0.83;;;0.80;;
8592;SDS011;4334;49.982;8.398;2023-04-24T12:19:56;1.30;;;1.20;;
8592;SDS011;4334;49.982;8.398;2023-04-24T12:22:24;2.03;;;1.10;;
8592;SDS011;4334;49.982;8.398;2023-04-24T12:25:02;1.43;;;1.27;;
8592;SDS011;4334;49.982;8.398;2023-04-24T12:27:30;3.90;;;1.10;;
8592;SDS011;4334;49.982;8.398;2023-04-24T12:30:03;2.67;;;1.43;;
8592;SDS011;4334;49.982;8.398;2023-04-24T12:32:33;1.20;;;1.07;;
8592;SDS011;4334;49.982;8.398;2023-04-24T12:34:59;5.53;;;1.70;;
8592;SDS011;4334;49.982;8.398;2023-04-24T12:37:32;2.97;;;1.40;;
8592;SDS011;4334;49.982;8.398;2023-04-24T12:40:02;3.60;;;1.43;;
8592;SDS011;4334;49.982;8.398;2023-04-24T12:42:31;2.20;;;1.70;;
8592;SDS011;4334;49.982;8.398;2023-04-24T12:45:00;7.77;;;2.70;;
8592;SDS011;4334;49.982;8.398;2023-04-24T12:47:30;7.80;;;2.27;;
8592;SDS011;4334;49.982;8.398;2023-04-24T12:49:58;2.57;;;1.73;;
8592;SDS011;4334;49.982;8.398;2023-04-24T12:52:29;4.03;;;1.97;;
8592;SDS011;4334;49.982;8.398;2023-04-24T12:54:57;1.67;;;1.43;;
8592;SDS011;4334;49.982;8.398;2023-04-24T12:57:25;5.33;;;1.73;;
8592;SDS011;4334;49.982;8.398;2023-04-24T12:59:53;1.83;;;1.67;;
8592;SDS011;4334;49.982;8.398;2023-04-24T13:02:21;3.43;;;2.07;;
8592;SDS011;4334;49.982;8.398;2023-04-24T13:04:48;2.77;;;1.60;;
8592;SDS011;4334;49.982;8.398;2023-04-24T13:07:17;2.87;;;2.07;;
8592;SDS011;4334;49.982;8.398;2023-04-24T13:09:45;4.87;;;1.80;;
8592;SDS011;4334;49.982;8.398;2023-04-24T13:12:15;2.23;;;1.50;;
8592;SDS011;4334;49.982;8.398;2023-04-24T13:14:42;3.23;;;1.57;;
8592;SDS011;4334;49.982;8.398;2023-04-24T13:17:10;2.13;;;1.70;;
8592;SDS011;4334;49.982;8.398;2023-04-24T13:19:38;1.90;;;1.70;;
8592;SDS011;4334;49.982;8.398;2023-04-24T13:22:06;2.43;;;1.90;;
8592;SDS011;4334;49.982;8.398;2023-04-24T13:24:34;2.20;;;1.90;;
8592;SDS011;4334;49.982;8.398;2023-04-24T13:27:01;3.67;;;1.80;;
8592;SDS011;4334;49.982;8.398;2023-04-24T13:29:28;3.17;;;2.27;;
8592;SDS011;4334;49.982;8.398;2023-04-24T13:31:55;3.57;;;1.67;;
8592;SDS011;4334;49.982;8.398;2023-04-24T13:34:22;1.30;;;1.20;;
8592;SDS011;4334;49.982;8.398;2023-04-24T13:36:50;1.73;;;1.63;;
8592;SDS011;4334;49.982;8.398;2023-04-24T13:39:17;1.77;;;1.57;;
8592;SDS011;4334;49.982;8.398;2023-04-24T13:41:46;5.03;;;2.07;;
8592;SDS011;4334;49.982;8.398;2023-04-24T13:44:13;1.63;;;1.50;;
8592;SDS011;4334;49.982;8.398;2023-04-24T13:46:40;1.90;;;1.70;;
8592;SDS011;4334;49.982;8.398;2023-04-24T13:49:08;1.90;;;1.70;;
8592;SDS011;4334;49.982;8.398;2023-04-24T13:51:35;1.40;;;1.30;;
8592;SDS011;4334;49.982;8.398;2023-04-24T13:54:02;4.33;;;1.60;;
8592;SDS011;4334;49.982;8.398;2023-04-24T13:56:29;2.40;;;1.87;;
8592;SDS011;4334;49.982;8.398;2023-04-24T13:58:57;3.10;;;1.80;;
8592;SDS011;4334;49.982;8.398;2023-04-24T14:01:24;2.40;;;1.73;;
8592;SDS011;4334;49.982;8.398;2023-04-24T14:03:51;4.50;;;2.10;;
8592;SDS011;4334;49.982;8.398;2023-04-24T14:06:19;3.70;;;1.70;;
8592;SDS011;4334;49.982;8.398;2023-04-24T14:08:46;1.90;;;1.70;;
8592;SDS011;4334;49.982;8.398;2023-04-24T14:11:13;3.17;;;1.43;;
8592;SDS011;4334;49.982;8.398;2023-04-24T14:13:41;2.97;;;1.70;;
8592;SDS011;4334;49.982;8.398;2023-04-24T14:16:10;1.60;;;1.50;;
8592;SDS011;4334;49.982;8.398;2023-04-24T14:18:37;3.57;;;1.60;;
8592;SDS011;4334;49.982;8.398;2023-04-24T14:21:04;4.20;;;1.50;;
8592;SDS011;4334;49.982;8.398;2023-04-24T14:23:31;7.13;;;1.60;;
8592;SDS011;4334;49.982;8.398;2023-04-24T14:25:58;9.70;;;2.50;;
8592;SDS011;4334;49.982;8.398;2023-04-24T14:28:25;2.70;;;2.00;;
8592;SDS011;4334;49.982;8.398;2023-04-24T14:30:52;4.47;;;1.60;;
8592;SDS011;4334;49.982;8.398;2023-04-24T14:33:20;3.10;;;1.97;;
8592;SDS011;4334;49.982;8.398;2023-04-24T14:35:48;2.53;;;1.97;;
8592;SDS011;4334;49.982;8.398;2023-04-24T14:38:14;1.90;;;1.70;;
8592;SDS011;4334;49.982;8.398;2023-04-24T14:40:41;1.67;;;1.57;;
8592;SDS011;4334;49.982;8.398;2023-04-24T14:43:08;2.80;;;1.90;;
8592;SDS011;4334;49.982;8.398;2023-04-24T14:45:36;1.70;;;1.60;;
8592;SDS011;4334;49.982;8.398;2023-04-24T14:48:03;5.67;;;2.77;;
8592;SDS011;4334;49.982;8.398;2023-04-24T14:50:31;3.17;;;1.93;;
8592;SDS011;4334;49.982;8.398;2023-04-24T14:52:58;3.50;;;1.50;;
8592;SDS011;4334;49.982;8.398;2023-04-24T14:55:27;6.80;;;2.90;;
8592;SDS011;4334;49.982;8.398;2023-04-24T14:57:53;5.63;;;2.70;;
8592;SDS011;4334;49.982;8.398;2023-04-24T15:00:21;4.10;;;2.57;;
8592;SDS011;4334;49.982;8.398;2023-04-24T15:02:48;4.87;;;1.80;;
8592;SDS011;4334;49.982;8.398;2023-04-24T15:05:15;1.93;;;1.67;;
8592;SDS011;4334;49.982;8.398;2023-04-24T15:07:44;2.00;;;1.80;;
8592;SDS011;4334;49.982;8.398;2023-04-24T15:10:11;3.93;;;2.03;;
8592;SDS011;4334;49.982;8.398;2023-04-24T15:12:38;2.50;;;1.47;;
8592;SDS011;4334;49.982;8.398;2023-04-24T15:15:06;2.40;;;2.03;;
8592;SDS011;4334;49.982;8.398;2023-04-24T15:17:34;1.40;;;1.30;;
8592;SDS011;4334;49.982;8.398;2023-04-24T15:20:01;3.70;;;2.10;;
8592;SDS011;4334;49.982;8.398;2023-04-24T15:22:31;1.80;;;1.70;;
8592;SDS011;4334;49.982;8.398;2023-04-24T15:24:59;1.80;;;1.67;;
8592;SDS011;4334;49.982;8.398;2023-04-24T15:27:38;2.30;;;1.47;;